Time;durP1;ratioP1;P1;durP2;ratioP2;P2;SDS_P1;SDS_P2;PMS_P1;PMS_P2;Temp;Humidity;BMP_temperature;BMP_pressure;BME280_temperature;BME280_humidity;BME280_pressure;Samples;Min_cycle;Max_cycle;Signal;HPM_P1;HPM_P2
2022/03/10 00:01:17;;;;;;;;;;;-3.10;99.90;;;;;;5085628;28;19938;-70
2022/03/10 00:03:44;;;;;;;;;;;-3.20;99.90;;;;;;5071529;28;19924;-70
2022/03/10 00:06:13;;;;;;;;;;;-3.20;99.90;;;;;;5071972;28;20338;-72
2022/03/10 00:08:40;;;;;;;;;;;-3.30;99.90;;;;;;5070957;28;19956;-70
2022/03/10 00:11:07;;;;;;;;;;;-3.30;99.90;;;;;;5071484;28;20578;-70
2022/03/10 00:13:34;;;;;;;;;;;-3.30;99.90;;;;;;5082576;28;19924;-70
2022/03/10 00:16:01;;;;;;;;;;;-3.30;99.90;;;;;;5087534;28;19924;-70
2022/03/10 00:18:30;;;;;;;;;;;-3.30;99.90;;;;;;5079134;28;20387;-70
2022/03/10 00:20:57;;;;;;;;;;;-3.30;99.90;;;;;;5084667;28;19930;-69
2022/03/10 00:23:26;;;;;;;;;;;-3.30;99.90;;;;;;5078487;28;20427;-70
2022/03/10 00:25:54;;;;;;;;;;;-3.20;99.90;;;;;;5073407;28;19931;-70
2022/03/10 00:28:21;;;;;;;;;;;-3.20;99.90;;;;;;5088388;28;19952;-70
2022/03/10 00:30:48;;;;;;;;;;;-3.10;99.90;;;;;;5088808;28;19970;-70
2022/03/10 00:33:15;;;;;;;;;;;-3.10;99.90;;;;;;5069594;28;19927;-70
2022/03/10 00:35:45;;;;;;;;;;;-3.10;99.90;;;;;;5082273;28;19920;-70
2022/03/10 00:38:14;;;;;;;;;;;-3.10;99.90;;;;;;5083626;28;19920;-70
2022/03/10 00:40:41;;;;;;;;;;;-3.00;99.90;;;;;;5078423;28;19920;-69
2022/03/10 00:43:11;;;;;;;;;;;-3.00;99.90;;;;;;5084647;28;20014;-69
2022/03/10 00:45:38;;;;;;;;;;;-3.10;99.90;;;;;;5086687;28;19923;-69
2022/03/10 00:48:05;;;;;;;;;;;-3.20;99.90;;;;;;5089239;28;19920;-69
2022/03/10 00:50:32;;;;;;;;;;;-3.30;99.90;;;;;;5072554;28;20469;-69
2022/03/10 00:53:01;;;;;;;;;;;-3.40;99.90;;;;;;5082902;28;19920;-69
2022/03/10 00:55:31;;;;;;;;;;;-3.40;99.90;;;;;;5069083;28;19963;-70
2022/03/10 00:57:58;;;;;;;;;;;-3.60;99.90;;;;;;5069027;28;19966;-69
2022/03/10 01:00:28;;;;;;;;;;;-3.60;99.90;;;;;;5069377;28;20010;-70
2022/03/10 01:02:57;;;;;;;;;;;-3.70;99.90;;;;;;5088182;28;19967;-69
2022/03/10 01:05:27;;;;;;;;;;;-3.80;99.90;;;;;;5081018;28;19924;-69
2022/03/10 01:07:54;;;;;;;;;;;-3.80;99.90;;;;;;5086144;28;19927;-69
2022/03/10 01:10:23;;;;;;;;;;;-3.90;99.90;;;;;;5082701;28;19931;-70
2022/03/10 01:12:50;;;;;;;;;;;-3.90;99.90;;;;;;5087360;28;19963;-69
2022/03/10 01:15:18;;;;;;;;;;;-3.90;99.90;;;;;;5070371;28;19965;-69
2022/03/10 01:17:45;;;;;;;;;;;-4.00;99.90;;;;;;5084375;28;19927;-69
2022/03/10 01:20:14;;;;;;;;;;;-4.00;99.90;;;;;;5086080;28;20893;-69
2022/03/10 01:22:41;;;;;;;;;;;-3.90;99.90;;;;;;5084097;28;19927;-69
2022/03/10 01:25:08;;;;;;;;;;;-3.90;99.90;;;;;;5070698;28;20475;-69
2022/03/10 01:27:35;;;;;;;;;;;-3.90;99.90;;;;;;5070031;28;19921;-69
2022/03/10 01:30:02;;;;;;;;;;;-3.90;99.90;;;;;;5070479;28;19920;-70
2022/03/10 01:32:30;;;;;;;;;;;-3.80;99.90;;;;;;5083663;28;19920;-69
2022/03/10 01:34:57;;;;;;;;;;;-3.80;99.90;;;;;;5073636;28;19924;-70
2022/03/10 01:37:24;;;;;;;;;;;-3.90;99.90;;;;;;5072994;28;19924;-69
2022/03/10 01:39:51;;;;;;;;;;;-4.00;99.90;;;;;;5074557;28;19988;-69
2022/03/10 01:42:18;;;;;;;;;;;-4.00;99.90;;;;;;5074314;28;19920;-69
2022/03/10 01:44:44;;;;;;;;;;;-4.00;99.90;;;;;;5073210;28;19920;-70
2022/03/10 01:47:11;;;;;;;;;;;-4.10;99.90;;;;;;5077299;28;19920;-69
2022/03/10 01:49:38;;;;;;;;;;;-4.10;99.90;;;;;;5078774;28;20418;-69
2022/03/10 01:52:05;;;;;;;;;;;-4.00;99.90;;;;;;5088111;28;20441;-69
2022/03/10 01:54:33;;;;;;;;;;;-4.00;99.90;;;;;;5088295;28;19930;-69
2022/03/10 01:57:01;;;;;;;;;;;-4.00;99.90;;;;;;5073803;28;19920;-69
2022/03/10 01:59:30;;;;;;;;;;;-4.10;99.90;;;;;;5083766;28;19928;-69
2022/03/10 02:02:00;;;;;;;;;;;-4.10;99.90;;;;;;5086301;28;20405;-69
2022/03/10 02:04:27;;;;;;;;;;;-4.10;99.90;;;;;;5072830;28;19932;-69
2022/03/10 02:06:55;;;;;;;;;;;-4.20;99.90;;;;;;5073714;28;19927;-70
2022/03/10 02:12:10;;;;;;;;;;;-4.40;99.90;;;;;;5076034;28;20001;-68
2022/03/10 02:17:22;;;;;;;;;;;-4.60;99.90;;;;;;5071897;28;19951;-68
2022/03/10 02:19:55;;;;;;;;;;;-4.60;99.90;;;;;;5076065;28;19920;-68
2022/03/10 02:22:22;;;;;;;;;;;-4.70;99.90;;;;;;5079770;28;20360;-68
2022/03/10 02:24:50;;;;;;;;;;;-4.70;99.90;;;;;;5086929;28;19920;-68
2022/03/10 02:27:26;;;;;;;;;;;-4.60;99.90;;;;;;5072399;28;20435;-68
2022/03/10 02:29:55;;;;;;;;;;;-4.60;99.90;;;;;;5086265;28;19927;-68
2022/03/10 02:32:22;;;;;;;;;;;-4.50;99.90;;;;;;5087764;28;19927;-68
2022/03/10 02:34:49;;;;;;;;;;;-4.60;99.90;;;;;;5072702;28;19928;-68
2022/03/10 02:37:19;;;;;;;;;;;-4.50;99.90;;;;;;5076927;28;19924;-68
2022/03/10 02:39:45;;;;;;;;;;;-4.50;99.90;;;;;;5091502;28;20358;-68
2022/03/10 02:42:13;;;;;;;;;;;-4.60;99.90;;;;;;5090592;28;20440;-68
2022/03/10 02:44:43;;;;;;;;;;;-4.50;99.90;;;;;;5085704;28;19966;-68
2022/03/10 02:47:10;;;;;;;;;;;-4.50;99.90;;;;;;5071336;28;19963;-68
2022/03/10 02:49:37;;;;;;;;;;;-4.50;99.90;;;;;;5073164;28;19966;-68
2022/03/10 02:52:04;;;;;;;;;;;-4.50;99.90;;;;;;5073158;28;19982;-68
2022/03/10 02:54:40;;;;;;;;;;;-4.50;99.90;;;;;;5083578;28;19924;-68
2022/03/10 02:57:07;;;;;;;;;;;-4.50;99.90;;;;;;5090534;28;19920;-68
2022/03/10 02:59:33;;;;;;;;;;;-4.60;99.90;;;;;;5089434;28;19964;-68
2022/03/10 03:02:00;;;;;;;;;;;-4.60;99.90;;;;;;5090363;28;20522;-68
2022/03/10 03:04:27;;;;;;;;;;;-4.60;99.90;;;;;;5090603;28;20266;-69
2022/03/10 03:06:53;;;;;;;;;;;-4.60;99.90;;;;;;5087214;28;19930;-68
2022/03/10 03:09:20;;;;;;;;;;;-4.60;99.90;;;;;;5090553;28;20417;-68
2022/03/10 03:11:47;;;;;;;;;;;-4.70;99.90;;;;;;5075417;28;19924;-68
2022/03/10 03:14:16;;;;;;;;;;;-4.80;99.90;;;;;;5090118;28;20003;-68
2022/03/10 03:16:44;;;;;;;;;;;-4.90;99.90;;;;;;5084481;28;19920;-68
2022/03/10 03:19:10;;;;;;;;;;;-4.80;99.90;;;;;;5090889;28;19983;-68
2022/03/10 03:21:37;;;;;;;;;;;-4.80;99.90;;;;;;5081121;28;19926;-68
2022/03/10 03:24:04;;;;;;;;;;;-4.80;99.90;;;;;;5079597;28;19988;-68
2022/03/10 03:26:31;;;;;;;;;;;-4.80;99.90;;;;;;5071422;28;19921;-68
2022/03/10 03:28:57;;;;;;;;;;;-4.80;99.90;;;;;;5072289;28;19946;-68
2022/03/10 03:31:24;;;;;;;;;;;-4.80;99.90;;;;;;5085795;28;20015;-69
2022/03/10 03:33:53;;;;;;;;;;;-4.80;99.90;;;;;;5079601;28;19919;-68
2022/03/10 03:36:20;;;;;;;;;;;-4.80;99.90;;;;;;5080404;28;19955;-68
2022/03/10 03:38:46;;;;;;;;;;;-4.80;99.90;;;;;;5087251;28;19955;-68
2022/03/10 03:41:13;;;;;;;;;;;-4.80;99.90;;;;;;5080044;28;19920;-68
2022/03/10 03:43:40;;;;;;;;;;;-4.80;99.90;;;;;;5078650;28;19926;-69
2022/03/10 03:46:07;;;;;;;;;;;-4.80;99.90;;;;;;5079201;28;20433;-69
2022/03/10 03:48:34;;;;;;;;;;;-4.80;99.90;;;;;;5080669;28;19931;-68
2022/03/10 03:51:01;;;;;;;;;;;-4.70;99.90;;;;;;5089366;28;19920;-69
2022/03/10 03:53:28;;;;;;;;;;;-4.60;99.90;;;;;;5088296;28;19927;-68
2022/03/10 03:55:55;;;;;;;;;;;-4.60;99.90;;;;;;5082723;28;19927;-68
2022/03/10 03:58:21;;;;;;;;;;;-4.60;99.90;;;;;;5072097;28;19931;-68
2022/03/10 04:00:48;;;;;;;;;;;-4.60;99.90;;;;;;5090118;28;20006;-68
2022/03/10 04:03:15;;;;;;;;;;;-4.50;99.90;;;;;;5090188;28;19924;-68
2022/03/10 04:05:42;;;;;;;;;;;-4.50;99.90;;;;;;5074969;28;19927;-69
2022/03/10 04:08:09;;;;;;;;;;;-4.40;99.90;;;;;;5070409;28;19926;-69
2022/03/10 04:10:38;;;;;;;;;;;-4.40;99.90;;;;;;5071679;28;20314;-68
2022/03/10 04:13:05;;;;;;;;;;;-4.30;99.90;;;;;;5089163;28;20030;-69
2022/03/10 04:15:34;;;;;;;;;;;-4.10;99.90;;;;;;5090196;28;20390;-69
2022/03/10 04:18:01;;;;;;;;;;;-4.10;99.90;;;;;;5087325;28;19952;-69
2022/03/10 04:20:28;;;;;;;;;;;-4.10;99.90;;;;;;5076589;28;19931;-68
2022/03/10 04:22:55;;;;;;;;;;;-4.00;99.90;;;;;;5085485;28;19935;-71
2022/03/10 04:25:22;;;;;;;;;;;-4.00;99.90;;;;;;5078931;28;19920;-69
2022/03/10 04:27:50;;;;;;;;;;;-3.90;99.90;;;;;;5084738;28;19928;-69
2022/03/10 04:30:22;;;;;;;;;;;-3.90;99.90;;;;;;5087177;28;20003;-69
2022/03/10 04:32:49;;;;;;;;;;;-3.80;99.90;;;;;;5077546;28;20380;-69
2022/03/10 04:35:16;;;;;;;;;;;-3.70;99.90;;;;;;5084445;28;19920;-69
2022/03/10 04:37:49;;;;;;;;;;;-3.60;99.90;;;;;;5078832;28;20489;-69
2022/03/10 04:40:16;;;;;;;;;;;-3.50;99.90;;;;;;5089165;28;19920;-69
2022/03/10 04:42:43;;;;;;;;;;;-3.50;99.90;;;;;;5074621;28;20007;-69
2022/03/10 04:45:10;;;;;;;;;;;-3.40;99.90;;;;;;5069495;28;19999;-69
2022/03/10 04:47:37;;;;;;;;;;;-3.30;99.90;;;;;;5071562;28;19927;-69
2022/03/10 04:50:05;;;;;;;;;;;-3.20;99.90;;;;;;5072084;28;19995;-69
2022/03/10 04:52:32;;;;;;;;;;;-3.20;99.90;;;;;;5089542;28;19970;-69
2022/03/10 04:54:58;;;;;;;;;;;-3.10;99.90;;;;;;5081741;28;19971;-69
2022/03/10 04:57:27;;;;;;;;;;;-3.10;99.90;;;;;;5070411;28;19978;-69
2022/03/10 04:59:54;;;;;;;;;;;-3.10;99.90;;;;;;5077070;28;20366;-70
2022/03/10 05:02:20;;;;;;;;;;;-3.00;99.90;;;;;;5080339;28;20010;-69
2022/03/10 05:04:48;;;;;;;;;;;-3.00;99.90;;;;;;5085043;28;20330;-70
2022/03/10 05:07:17;;;;;;;;;;;-3.00;99.90;;;;;;5078039;28;20428;-70
2022/03/10 05:09:43;;;;;;;;;;;-3.00;99.90;;;;;;5083915;28;19955;-69
2022/03/10 05:12:10;;;;;;;;;;;-3.00;99.90;;;;;;5093247;28;19946;-70
2022/03/10 05:14:37;;;;;;;;;;;-3.00;99.90;;;;;;5089840;28;19920;-70
2022/03/10 05:17:03;;;;;;;;;;;-3.10;99.90;;;;;;5074767;28;19943;-70
2022/03/10 05:19:30;;;;;;;;;;;-3.00;99.90;;;;;;5075210;28;19919;-70
2022/03/10 05:21:57;;;;;;;;;;;-2.90;99.90;;;;;;5080717;28;19998;-70
2022/03/10 05:24:24;;;;;;;;;;;-2.70;99.90;;;;;;5081120;28;20414;-70
2022/03/10 05:26:51;;;;;;;;;;;-2.50;99.90;;;;;;5087383;28;19919;-70
2022/03/10 05:29:17;;;;;;;;;;;-2.60;99.90;;;;;;5074499;28;20014;-70
2022/03/10 05:31:49;;;;;;;;;;;-2.70;99.90;;;;;;5093166;28;19998;-70
2022/03/10 05:34:17;;;;;;;;;;;-2.80;99.90;;;;;;5091177;28;19966;-69
2022/03/10 05:36:43;;;;;;;;;;;-3.00;99.90;;;;;;5084297;28;19973;-69
2022/03/10 05:39:10;;;;;;;;;;;-3.10;99.90;;;;;;5079151;28;19951;-70
2022/03/10 05:41:40;;;;;;;;;;;-3.10;99.90;;;;;;5076523;28;19928;-70
2022/03/10 05:44:07;;;;;;;;;;;-2.90;99.90;;;;;;5092733;28;20010;-70
2022/03/10 05:46:34;;;;;;;;;;;-2.70;99.90;;;;;;5074070;28;19967;-70
2022/03/10 05:49:00;;;;;;;;;;;-2.60;99.90;;;;;;5073100;28;19920;-69
2022/03/10 05:51:27;;;;;;;;;;;-2.50;99.90;;;;;;5081512;28;19928;-69
2022/03/10 05:53:54;;;;;;;;;;;-2.50;99.90;;;;;;5074055;28;19952;-69
2022/03/10 05:56:24;;;;;;;;;;;-2.50;99.90;;;;;;5074048;28;19960;-69
2022/03/10 05:58:50;;;;;;;;;;;-2.50;99.90;;;;;;5072319;28;20355;-69
2022/03/10 06:01:17;;;;;;;;;;;-2.40;99.90;;;;;;5073975;28;20011;-69
2022/03/10 06:03:46;;;;;;;;;;;-2.30;99.90;;;;;;5081250;28;20397;-69
2022/03/10 06:06:13;;;;;;;;;;;-2.20;99.90;;;;;;5087609;28;19924;-70
2022/03/10 06:08:40;;;;;;;;;;;-2.30;99.90;;;;;;5079444;28;20393;-70
2022/03/10 06:11:07;;;;;;;;;;;-2.20;99.90;;;;;;5090487;28;19967;-70
2022/03/10 06:13:36;;;;;;;;;;;-2.20;99.90;;;;;;5092593;28;19920;-70
2022/03/10 06:16:06;;;;;;;;;;;-2.30;99.90;;;;;;5083411;28;19920;-70
2022/03/10 06:18:35;;;;;;;;;;;-2.30;99.90;;;;;;5086332;28;19927;-70
2022/03/10 06:21:02;;;;;;;;;;;-2.30;99.90;;;;;;5090662;28;20429;-70
2022/03/10 06:23:28;;;;;;;;;;;-2.30;99.90;;;;;;5091193;28;19924;-71
2022/03/10 06:25:55;;;;;;;;;;;-2.20;99.90;;;;;;5073266;28;19946;-70
2022/03/10 06:28:22;;;;;;;;;;;-2.20;99.90;;;;;;5073311;28;20012;-70
2022/03/10 06:30:49;;;;;;;;;;;-2.10;99.90;;;;;;5075824;28;20458;-69
2022/03/10 06:33:15;;;;;;;;;;;-1.90;99.90;;;;;;5079201;28;19924;-69
2022/03/10 06:35:42;;;;;;;;;;;-1.80;99.90;;;;;;5092260;28;20022;-70
2022/03/10 06:38:11;;;;;;;;;;;-1.70;99.90;;;;;;5087645;28;20430;-70
2022/03/10 06:40:37;;;;;;;;;;;-1.60;99.90;;;;;;5088049;28;20510;-69
2022/03/10 06:43:04;;;;;;;;;;;-1.40;99.90;;;;;;5079267;28;19921;-70
2022/03/10 06:45:36;;;;;;;;;;;-1.00;99.90;;;;;;5073273;28;20071;-70
2022/03/10 06:48:03;;;;;;;;;;;-0.50;99.90;;;;;;5078823;28;19925;-70
2022/03/10 06:50:30;;;;;;;;;;;0.60;99.90;;;;;;5087440;28;19920;-70
2022/03/10 06:53:00;;;;;;;;;;;1.70;99.90;;;;;;5078560;28;20022;-70
2022/03/10 06:55:27;;;;;;;;;;;2.60;99.90;;;;;;5091848;28;20014;-70
2022/03/10 06:57:56;;;;;;;;;;;3.00;99.90;;;;;;5077158;28;19920;-71
2022/03/10 07:00:23;;;;;;;;;;;3.60;99.90;;;;;;5072352;28;20015;-71
2022/03/10 07:02:52;;;;;;;;;;;4.30;99.90;;;;;;5072825;28;19927;-71
2022/03/10 07:05:20;;;;;;;;;;;4.60;99.90;;;;;;5079699;28;19924;-71
2022/03/10 07:07:46;;;;;;;;;;;5.10;99.90;;;;;;5076063;28;20397;-72
2022/03/10 07:10:13;;;;;;;;;;;5.60;99.90;;;;;;5090501;28;19926;-72
2022/03/10 07:12:41;;;;;;;;;;;6.20;99.90;;;;;;5087570;28;19924;-72
2022/03/10 07:15:08;;;;;;;;;;;6.70;99.90;;;;;;5078443;28;19958;-73
2022/03/10 07:17:35;;;;;;;;;;;7.60;99.90;;;;;;5081073;28;19926;-73
2022/03/10 07:20:02;;;;;;;;;;;7.70;99.90;;;;;;5080613;28;19981;-72
2022/03/10 07:22:29;;;;;;;;;;;8.10;99.90;;;;;;5079305;28;19924;-73
2022/03/10 07:24:59;;;;;;;;;;;8.30;99.90;;;;;;5077899;28;20371;-73
2022/03/10 07:27:25;;;;;;;;;;;8.20;99.90;;;;;;5094939;28;19923;-72
2022/03/10 07:29:54;;;;;;;;;;;8.20;99.90;;;;;;5073247;28;20325;-72
2022/03/10 07:32:23;;;;;;;;;;;8.00;99.60;;;;;;5085549;28;19965;-72
2022/03/10 07:34:49;;;;;;;;;;;8.00;99.60;;;;;;5080111;28;20347;-73
2022/03/10 07:37:16;;;;;;;;;;;8.10;99.90;;;;;;5071095;28;20030;-72
2022/03/10 07:39:43;;;;;;;;;;;8.30;99.40;;;;;;5074228;28;19920;-72
2022/03/10 07:42:09;;;;;;;;;;;8.40;99.40;;;;;;5088870;28;19934;-72
2022/03/10 07:44:36;;;;;;;;;;;8.80;98.90;;;;;;5084572;28;19920;-72
2022/03/10 07:47:03;;;;;;;;;;;8.70;98.70;;;;;;5071682;28;19920;-73
2022/03/10 07:49:30;;;;;;;;;;;8.90;99.00;;;;;;5071542;28;19920;-73
2022/03/10 07:51:57;;;;;;;;;;;8.80;98.30;;;;;;5089432;28;20429;-73
2022/03/10 07:54:25;;;;;;;;;;;8.70;97.90;;;;;;5080794;28;19920;-72
2022/03/10 07:56:52;;;;;;;;;;;8.40;98.10;;;;;;5073976;28;19920;-72
2022/03/10 07:59:19;;;;;;;;;;;8.20;98.10;;;;;;5082304;28;20450;-72
2022/03/10 08:01:45;;;;;;;;;;;8.00;98.10;;;;;;5089837;28;20014;-72
2022/03/10 08:04:13;;;;;;;;;;;8.00;98.40;;;;;;5071239;28;19959;-72
2022/03/10 08:06:42;;;;;;;;;;;8.20;98.30;;;;;;5078868;28;19963;-72
2022/03/10 08:09:10;;;;;;;;;;;8.30;97.80;;;;;;5089090;28;20019;-72
2022/03/10 08:11:39;;;;;;;;;;;8.30;97.80;;;;;;5082857;28;19924;-72
2022/03/10 08:14:07;;;;;;;;;;;8.50;98.10;;;;;;5073787;28;19924;-72
2022/03/10 08:16:34;;;;;;;;;;;8.80;98.50;;;;;;5082732;28;20657;-72
2022/03/10 08:19:01;;;;;;;;;;;8.80;97.20;;;;;;5084840;28;19927;-72
2022/03/10 08:21:28;;;;;;;;;;;8.90;97.70;;;;;;5085405;28;20016;-72
2022/03/10 08:23:55;;;;;;;;;;;9.20;97.50;;;;;;5073771;28;20018;-72
2022/03/10 08:26:23;;;;;;;;;;;9.30;97.30;;;;;;5090276;28;19943;-73
2022/03/10 08:28:52;;;;;;;;;;;9.50;96.80;;;;;;5078833;28;20028;-73
2022/03/10 08:31:20;;;;;;;;;;;9.60;97.30;;;;;;5070734;28;20371;-72
2022/03/10 08:33:47;;;;;;;;;;;;;;;;;;5087408;28;19920;-72
2022/03/10 08:36:14;;;;;;;;;;;10.40;95.90;;;;;;5084843;28;19927;-71
2022/03/10 08:38:41;;;;;;;;;;;10.50;95.70;;;;;;5078079;28;19931;-72
2022/03/10 08:41:08;;;;;;;;;;;10.80;95.70;;;;;;5075220;28;19955;-72
2022/03/10 08:43:34;;;;;;;;;;;11.10;95.30;;;;;;5089177;28;20015;-72
2022/03/10 08:46:05;;;;;;;;;;;11.10;95.10;;;;;;5085949;28;20019;-72
2022/03/10 08:48:34;;;;;;;;;;;10.90;94.80;;;;;;5080946;28;19973;-72
2022/03/10 08:51:02;;;;;;;;;;;11.10;94.20;;;;;;5088889;28;20015;-71
2022/03/10 08:53:29;;;;;;;;;;;;;;;;;;5071107;28;20015;-72
2022/03/10 08:55:56;;;;;;;;;;;11.50;94.70;;;;;;5072754;28;19926;-71
2022/03/10 08:58:24;;;;;;;;;;;11.60;93.90;;;;;;5070592;28;19921;-71
2022/03/10 09:00:51;;;;;;;;;;;11.70;93.90;;;;;;5078360;28;19936;-71
2022/03/10 09:03:38;;;;;;;;;;;12.00;94.00;;;;;;5078709;28;19920;-71
2022/03/10 09:06:07;;;;;;;;;;;12.20;93.40;;;;;;5084670;28;19920;-72
2022/03/10 09:08:34;;;;;;;;;;;12.20;93.20;;;;;;5070674;28;20381;-71
2022/03/10 09:11:02;;;;;;;;;;;12.30;93.00;;;;;;5070769;28;19921;-71
2022/03/10 09:13:29;;;;;;;;;;;12.40;93.00;;;;;;5078598;28;20034;-72
2022/03/10 09:15:56;;;;;;;;;;;12.50;93.20;;;;;;5072727;28;19921;-72
2022/03/10 09:18:26;;;;;;;;;;;12.90;92.90;;;;;;5077875;28;20002;-71
2022/03/10 09:20:52;;;;;;;;;;;13.30;92.70;;;;;;5077586;28;19928;-71
2022/03/10 09:23:22;;;;;;;;;;;13.50;92.40;;;;;;5072962;28;20022;-71
2022/03/10 09:25:49;;;;;;;;;;;13.90;92.70;;;;;;5081472;28;20007;-71
2022/03/10 09:28:15;;;;;;;;;;;14.30;92.60;;;;;;5082340;28;20015;-71
2022/03/10 09:30:42;;;;;;;;;;;14.70;91.80;;;;;;5086976;28;19920;-71
2022/03/10 09:33:10;;;;;;;;;;;14.40;91.00;;;;;;5084533;28;19931;-72
2022/03/10 09:35:37;;;;;;;;;;;14.00;91.00;;;;;;5070174;28;19943;-71
2022/03/10 09:38:03;;;;;;;;;;;13.60;91.30;;;;;;5069954;28;20413;-71
2022/03/10 09:40:32;;;;;;;;;;;13.80;91.30;;;;;;5069638;28;19927;-71
2022/03/10 09:43:02;;;;;;;;;;;14.40;91.30;;;;;;5088016;28;19924;-71
2022/03/10 09:45:31;;;;;;;;;;;15.00;91.50;;;;;;5082373;28;19927;-71
2022/03/10 09:47:58;;;;;;;;;;;15.50;90.50;;;;;;5070060;28;19920;-71
2022/03/10 09:50:25;;;;;;;;;;;15.80;90.20;;;;;;5069947;28;19927;-71
2022/03/10 09:52:51;;;;;;;;;;;15.40;89.70;;;;;;5070525;28;19997;-70
2022/03/10 09:55:21;;;;;;;;;;;15.80;90.50;;;;;;5089393;28;19919;-71
2022/03/10 09:57:48;;;;;;;;;;;16.20;90.70;;;;;;5081677;28;20394;-71
2022/03/10 10:00:16;;;;;;;;;;;17.00;89.30;;;;;;5072783;28;19928;-72
2022/03/10 10:02:44;;;;;;;;;;;17.50;88.00;;;;;;5081004;28;19920;-72
2022/03/10 10:05:17;;;;;;;;;;;16.90;86.00;;;;;;5072610;28;19920;-72
2022/03/10 10:07:59;;;;;;;;;;;16.70;87.50;;;;;;5080409;28;20337;-71
2022/03/10 10:10:29;;;;;;;;;;;17.10;88.10;;;;;;5078420;28;20281;-71
2022/03/10 10:13:24;;;;;;;;;;;16.60;86.70;;;;;;5092384;28;19920;-70
2022/03/10 10:16:10;;;;;;;;;;;16.60;86.70;;;;;;5076088;28;19956;-70
2022/03/10 10:18:38;;;;;;;;;;;16.00;86.00;;;;;;5089951;28;20043;-71
2022/03/10 10:21:14;;;;;;;;;;;15.30;86.80;;;;;;5075183;28;19932;-72
2022/03/10 10:23:41;;;;;;;;;;;15.30;87.80;;;;;;5071378;28;19974;-71
2022/03/10 10:26:09;;;;;;;;;;;15.50;87.80;;;;;;5084227;28;20015;-72
2022/03/10 10:28:45;;;;;;;;;;;15.90;87.70;;;;;;5074223;28;19965;-71
2022/03/10 10:31:13;;;;;;;;;;;16.10;86.60;;;;;;5078481;28;19920;-71
2022/03/10 10:33:41;;;;;;;;;;;15.90;87.20;;;;;;5081608;28;19924;-71
2022/03/10 10:36:12;;;;;;;;;;;15.70;86.20;;;;;;5072634;28;19965;-71
2022/03/10 10:38:39;;;;;;;;;;;16.20;87.50;;;;;;5079827;28;19973;-72
2022/03/10 10:41:15;;;;;;;;;;;16.60;85.50;;;;;;5091205;28;19920;-72
2022/03/10 10:43:43;;;;;;;;;;;16.70;85.30;;;;;;5081888;28;19921;-72
2022/03/10 10:46:20;;;;;;;;;;;16.70;84.70;;;;;;5087092;28;20301;-71
2022/03/10 10:48:49;;;;;;;;;;;17.10;85.00;;;;;;5089776;28;20511;-71
2022/03/10 10:51:39;;;;;;;;;;;17.00;83.90;;;;;;5071241;28;19920;-72
2022/03/10 10:54:23;;;;;;;;;;;17.50;85.40;;;;;;5080288;28;19920;-72
2022/03/10 10:56:51;;;;;;;;;;;17.50;83.30;;;;;;5087288;28;19924;-72
2022/03/10 10:59:30;;;;;;;;;;;17.70;83.70;;;;;;5072044;28;20387;-72
2022/03/10 11:02:17;;;;;;;;;;;17.70;83.00;;;;;;5083875;28;19927;-70
2022/03/10 11:04:46;;;;;;;;;;;18.60;83.30;;;;;;5081290;28;19920;-70
2022/03/10 11:07:17;;;;;;;;;;;19.60;82.20;;;;;;5076643;28;19920;-70
2022/03/10 11:09:46;;;;;;;;;;;19.60;81.70;;;;;;5089120;28;20007;-70
2022/03/10 11:12:14;;;;;;;;;;;19.40;82.00;;;;;;5077277;28;19955;-71
2022/03/10 11:14:42;;;;;;;;;;;19.30;81.50;;;;;;5072567;28;20270;-70
2022/03/10 11:17:09;;;;;;;;;;;19.30;80.40;;;;;;5071644;28;20475;-71
2022/03/10 11:19:41;;;;;;;;;;;18.80;80.40;;;;;;5072111;28;19921;-71
2022/03/10 11:22:14;;;;;;;;;;;19.00;81.60;;;;;;5072706;28;19927;-71
2022/03/10 11:25:03;;;;;;;;;;;19.50;81.20;;;;;;5086309;28;19920;-71
2022/03/10 11:27:33;;;;;;;;;;;19.50;80.10;;;;;;5071875;28;20367;-71
2022/03/10 11:30:01;;;;;;;;;;;19.90;79.70;;;;;;5075073;28;19930;-72
2022/03/10 11:32:30;;;;;;;;;;;19.80;79.30;;;;;;5090346;28;19973;-72
2022/03/10 11:35:00;;;;;;;;;;;20.20;79.30;;;;;;5086146;28;19920;-72
2022/03/10 11:37:35;;;;;;;;;;;20.40;79.10;;;;;;5085708;28;19928;-71
2022/03/10 11:40:06;;;;;;;;;;;21.20;78.50;;;;;;5072230;28;19921;-71
2022/03/10 11:42:33;;;;;;;;;;;20.50;77.10;;;;;;5086233;28;20380;-71
2022/03/10 11:45:09;;;;;;;;;;;21.00;79.20;;;;;;5071310;28;19924;-70
2022/03/10 11:47:36;;;;;;;;;;;21.00;77.30;;;;;;5070165;28;19920;-71
2022/03/10 11:50:24;;;;;;;;;;;20.20;77.30;;;;;;5086491;28;19920;-70
2022/03/10 11:52:55;;;;;;;;;;;20.50;78.10;;;;;;5075309;28;19924;-72
2022/03/10 11:55:22;;;;;;;;;;;21.80;77.30;;;;;;5076177;28;19920;-71
2022/03/10 11:57:55;;;;;;;;;;;22.30;76.40;;;;;;5081742;28;19939;-71
2022/03/10 12:00:40;;;;;;;;;;;22.50;75.40;;;;;;5079386;28;20019;-70
2022/03/10 12:03:07;;;;;;;;;;;22.60;75.80;;;;;;5070690;28;19920;-71
2022/03/10 12:05:55;;;;;;;;;;;22.10;75.10;;;;;;5078777;28;19924;-71
2022/03/10 12:08:23;;;;;;;;;;;21.60;75.10;;;;;;5072063;28;19920;-71
2022/03/10 12:10:50;;;;;;;;;;;20.80;75.40;;;;;;5071182;28;20526;-71
2022/03/10 12:13:20;;;;;;;;;;;20.80;75.60;;;;;;5072200;28;20405;-71
2022/03/10 12:15:47;;;;;;;;;;;20.80;75.60;;;;;;5071180;28;19920;-71
2022/03/10 12:18:16;;;;;;;;;;;21.10;75.30;;;;;;5077662;28;19920;-71
2022/03/10 12:20:50;;;;;;;;;;;20.90;74.70;;;;;;5071511;28;20006;-71
2022/03/10 12:23:21;;;;;;;;;;;20.10;75.10;;;;;;5071757;28;19924;-72
2022/03/10 12:26:06;;;;;;;;;;;19.10;75.20;;;;;;5070544;28;19920;-72
2022/03/10 12:28:38;;;;;;;;;;;18.70;75.80;;;;;;5078267;28;20014;-70
2022/03/10 12:31:10;;;;;;;;;;;19.20;76.40;;;;;;5089202;28;19970;-70
2022/03/10 12:33:43;;;;;;;;;;;19.00;75.70;;;;;;5084509;28;19920;-71
2022/03/10 12:36:10;;;;;;;;;;;19.00;76.60;;;;;;5073614;28;19926;-72
2022/03/10 12:38:44;;;;;;;;;;;19.10;76.40;;;;;;5070708;28;19960;-71
2022/03/10 12:41:11;;;;;;;;;;;19.00;76.20;;;;;;5071099;28;19938;-71
2022/03/10 12:43:41;;;;;;;;;;;18.80;77.00;;;;;;5077955;28;19934;-71
2022/03/10 12:46:09;;;;;;;;;;;19.10;76.30;;;;;;5083618;28;19924;-71
2022/03/10 12:48:54;;;;;;;;;;;19.30;76.20;;;;;;5071713;28;20370;-71
2022/03/10 12:51:22;;;;;;;;;;;19.10;76.20;;;;;;5077421;28;19924;-71
2022/03/10 12:53:49;;;;;;;;;;;19.40;76.20;;;;;;5071589;28;20019;-70
2022/03/10 12:56:19;;;;;;;;;;;18.90;75.70;;;;;;5070596;28;19920;-72
2022/03/10 12:58:47;;;;;;;;;;;18.60;75.60;;;;;;5070313;28;19924;-72
2022/03/10 13:01:13;;;;;;;;;;;18.80;75.50;;;;;;5084432;28;19926;-70
2022/03/10 13:03:48;;;;;;;;;;;18.90;75.50;;;;;;5084149;28;19924;-70
2022/03/10 13:06:16;;;;;;;;;;;18.80;75.20;;;;;;5082126;28;19924;-70
2022/03/10 13:08:50;;;;;;;;;;;18.40;75.40;;;;;;5080123;28;19920;-71
2022/03/10 13:11:22;;;;;;;;;;;18.50;75.70;;;;;;5089369;28;20011;-70
2022/03/10 13:14:04;;;;;;;;;;;18.60;75.40;;;;;;5078395;28;19963;-71
2022/03/10 13:16:32;;;;;;;;;;;18.90;74.60;;;;;;5083985;28;20430;-71
2022/03/10 13:18:59;;;;;;;;;;;18.50;73.70;;;;;;5082063;28;19920;-71
2022/03/10 13:21:25;;;;;;;;;;;18.50;74.60;;;;;;5070346;28;19927;-71
2022/03/10 13:23:52;;;;;;;;;;;18.50;74.40;;;;;;5070582;28;19962;-71
2022/03/10 13:26:21;;;;;;;;;;;18.50;74.50;;;;;;5072388;28;19924;-71
2022/03/10 13:28:47;;;;;;;;;;;18.70;75.10;;;;;;5084377;28;19931;-71
2022/03/10 13:31:14;;;;;;;;;;;19.20;74.80;;;;;;5080799;28;19920;-71
2022/03/10 13:33:41;;;;;;;;;;;19.00;74.40;;;;;;5080827;28;20605;-71
2022/03/10 13:36:10;;;;;;;;;;;18.40;74.70;;;;;;5081469;28;20007;-71
2022/03/10 13:38:43;;;;;;;;;;;18.40;75.90;;;;;;5073852;28;20337;-72
2022/03/10 13:41:09;;;;;;;;;;;18.70;75.00;;;;;;5074210;28;19920;-71
2022/03/10 13:43:41;;;;;;;;;;;18.60;75.00;;;;;;5073752;28;19955;-71
2022/03/10 13:46:14;;;;;;;;;;;18.70;74.80;;;;;;5078641;28;20003;-71
2022/03/10 13:48:45;;;;;;;;;;;19.10;75.50;;;;;;5082158;28;20011;-71
2022/03/10 13:51:16;;;;;;;;;;;19.60;74.60;;;;;;5073646;28;19931;-71
2022/03/10 13:53:52;;;;;;;;;;;19.40;73.80;;;;;;5073259;28;19968;-71
2022/03/10 13:56:27;;;;;;;;;;;19.30;74.00;;;;;;5083411;28;19920;-72
2022/03/10 13:58:53;;;;;;;;;;;19.40;73.70;;;;;;5077013;28;20007;-71
2022/03/10 14:01:23;;;;;;;;;;;19.20;73.60;;;;;;5074022;28;19927;-72
2022/03/10 14:03:52;;;;;;;;;;;19.40;73.50;;;;;;5081386;28;19942;-72
2022/03/10 14:06:18;;;;;;;;;;;19.40;73.50;;;;;;5091739;28;19920;-71
2022/03/10 14:08:52;;;;;;;;;;;19.10;73.50;;;;;;5084246;28;19926;-71
2022/03/10 14:11:27;;;;;;;;;;;19.00;74.10;;;;;;5086789;28;19924;-71
2022/03/10 14:13:59;;;;;;;;;;;19.00;73.30;;;;;;5087618;28;20022;-71
2022/03/10 14:16:29;;;;;;;;;;;19.10;73.00;;;;;;5073997;28;19920;-71
2022/03/10 14:19:02;;;;;;;;;;;19.70;73.90;;;;;;5083850;28;19920;-71
2022/03/10 14:21:30;;;;;;;;;;;19.70;72.70;;;;;;5081755;28;20279;-73
2022/03/10 14:24:00;;;;;;;;;;;19.80;72.70;;;;;;5081670;28;19927;-71
2022/03/10 14:26:36;;;;;;;;;;;19.90;72.70;;;;;;5078454;28;19920;-71
2022/03/10 14:29:04;;;;;;;;;;;19.40;72.00;;;;;;5072788;28;19920;-71
2022/03/10 14:31:31;;;;;;;;;;;19.30;73.30;;;;;;5073701;28;19920;-72
2022/03/10 14:33:57;;;;;;;;;;;18.90;73.00;;;;;;5087838;28;20011;-72